Time;durP1;ratioP1;P1;durP2;ratioP2;P2;SDS_P1;SDS_P2;PMS_P1;PMS_P2;Temp;Humidity;BMP_temperature;BMP_pressure;BME280_temperature;BME280_humidity;BME280_pressure;Samples;Min_cycle;Max_cycle;Signal;HPM_P1;HPM_P2
2022/04/17 00:00:17;;;;;;;3.80;3.08;;;;;;;3.67;90.69;100300.22;1756131;81;21037;-69
2022/04/17 00:02:44;;;;;;;3.37;2.72;;;;;;;3.67;90.94;100307.59;1755933;81;21021;-70
2022/04/17 00:05:11;;;;;;;3.83;2.62;;;;;;;3.65;91.16;100300.66;1756426;81;21557;-70
2022/04/17 00:07:38;;;;;;;4.85;3.22;;;;;;;3.64;91.01;100297.20;1756459;81;21006;-69
2022/04/17 00:10:08;;;;;;;4.53;3.12;;;;;;;3.66;91.49;100299.77;1756365;81;21061;-69
2022/04/17 00:12:41;;;;;;;3.90;3.08;;;;;;;3.66;92.01;100291.95;1756442;81;21069;-71
2022/04/17 00:15:13;;;;;;;3.08;2.45;;;;;;;3.66;92.13;100290.66;1748754;81;21021;-69
2022/04/17 00:17:47;;;;;;;5.70;3.02;;;;;;;3.63;92.35;100294.59;1747249;82;21049;-71
2022/04/17 00:20:10;;;;;;;3.65;2.70;;;;;;;3.62;92.94;100293.73;1745920;82;21092;-70
2022/04/17 00:22:37;;;;;;;4.30;3.30;;;;;;;3.63;93.21;100296.75;1748530;82;21083;-72
2022/04/17 00:25:07;;;;;;;4.60;3.10;;;;;;;3.66;92.83;100294.56;1747999;81;21187;-69
2022/04/17 00:27:35;;;;;;;5.42;3.30;;;;;;;3.63;93.35;100292.84;1748454;82;21026;-69
2022/04/17 00:30:04;;;;;;;4.22;3.17;;;;;;;3.61;93.78;100291.13;1738896;81;21050;-70
2022/04/17 00:32:31;;;;;;;7.67;3.22;;;;;;;3.60;94.32;100307.64;1735112;82;21605;-70
2022/04/17 00:34:59;;;;;;;5.45;3.42;;;;;;;3.57;94.05;100296.37;1735070;82;21059;-71
2022/04/17 00:37:26;;;;;;;5.05;3.45;;;;;;;3.54;94.34;100295.09;1734927;82;21251;-70
2022/04/17 00:39:53;;;;;;;4.72;3.52;;;;;;;3.55;94.65;100300.71;1734659;82;21546;-70
2022/04/17 00:42:20;;;;;;;4.47;3.37;;;;;;;3.55;95.06;100300.71;1734317;82;21527;-71
2022/04/17 00:44:48;;;;;;;4.78;3.80;;;;;;;3.53;95.14;100298.55;1734265;82;21553;-70
2022/04/17 00:47:17;;;;;;;3.60;3.12;;;;;;;3.51;95.53;100299.00;1734563;82;21062;-70
2022/04/17 00:49:45;;;;;;;4.22;3.10;;;;;;;3.50;96.00;100294.67;1734305;82;21266;-70
2022/04/17 00:52:13;;;;;;;4.87;3.37;;;;;;;3.50;96.15;100297.28;1734317;82;21589;-70
2022/04/17 00:54:44;;;;;;;5.12;3.87;;;;;;;3.50;97.05;100297.72;1734580;82;21082;-69
2022/04/17 00:57:12;;;;;;;4.33;3.12;;;;;;;3.49;97.24;100290.33;1734290;82;21011;-71
2022/04/17 00:59:41;;;;;;;4.87;4.20;;;;;;;3.49;97.39;100294.67;1734491;82;21030;-70
2022/04/17 01:02:09;;;;;;;4.33;3.08;;;;;;;3.48;97.94;100299.02;1734300;82;21115;-71
2022/04/17 01:04:37;;;;;;;6.60;3.30;;;;;;;3.44;98.62;100292.09;1734762;82;21021;-71
2022/04/17 01:07:05;;;;;;;5.25;3.75;;;;;;;3.42;98.66;100286.02;1734353;82;21089;-70
2022/04/17 01:09:33;;;;;;;6.05;4.15;;;;;;;3.40;98.86;100292.98;1734380;82;21034;-70
2022/04/17 01:12:00;;;;;;;6.60;4.00;;;;;;;3.39;99.18;100293.00;1734461;82;21065;-71
2022/04/17 01:14:27;;;;;;;4.95;3.40;;;;;;;3.36;99.56;100292.59;1734334;82;21281;-70
2022/04/17 01:16:55;;;;;;;6.03;3.70;;;;;;;3.35;99.67;100293.44;1734506;82;21026;-70
2022/04/17 01:19:22;;;;;;;4.53;3.50;;;;;;;3.37;100.00;100293.00;1734389;82;21617;-70
2022/04/17 01:21:49;;;;;;;5.15;3.85;;;;;;;3.38;100.00;100292.11;1734621;82;22026;-69
2022/04/17 01:27:03;;;;;;;4.67;3.52;;;;;;;3.39;100.00;100289.95;1734413;82;21325;-70
2022/04/17 01:29:38;;;;;;;5.20;3.42;;;;;;;3.40;100.00;100283.86;1734232;82;21078;-70
2022/04/17 01:32:09;;;;;;;4.78;3.25;;;;;;;3.40;100.00;100286.91;1734531;82;21042;-70
2022/04/17 01:34:37;;;;;;;5.30;3.62;;;;;;;3.38;100.00;100286.91;1734262;82;21026;-70
2022/04/17 01:37:05;;;;;;;4.50;3.55;;;;;;;3.38;100.00;100287.35;1734459;82;21105;-72
2022/04/17 01:39:32;;;;;;;4.70;3.67;;;;;;;3.35;100.00;100284.33;1734681;82;21279;-71
2022/04/17 01:41:59;;;;;;;4.83;3.17;;;;;;;3.34;100.00;100289.13;1734500;82;21514;-70
2022/04/17 01:44:28;;;;;;;5.42;3.60;;;;;;;3.32;100.00;100286.52;1734237;82;21018;-69
2022/04/17 01:46:56;;;;;;;4.03;3.40;;;;;;;3.31;100.00;100285.21;1734762;82;21086;-72
2022/04/17 01:49:26;;;;;;;5.85;3.85;;;;;;;3.32;100.00;100281.75;1734864;82;21005;-70
2022/04/17 01:51:53;;;;;;;3.90;3.22;;;;;;;3.29;100.00;100279.14;1734268;82;21250;-70
2022/04/17 01:54:24;;;;;;;4.65;3.67;;;;;;;3.27;100.00;100278.31;1734096;82;21117;-70
2022/04/17 01:56:51;;;;;;;3.97;3.57;;;;;;;3.27;100.00;100275.27;1734309;82;21086;-71
2022/04/17 01:59:19;;;;;;;4.30;3.52;;;;;;;3.28;100.00;100276.12;1734074;82;21037;-70
2022/04/17 02:01:48;;;;;;;4.62;3.95;;;;;;;3.27;100.00;100273.11;1734434;82;21065;-70
2022/04/17 02:04:15;;;;;;;5.67;3.30;;;;;;;3.27;100.00;100271.81;1734368;82;21246;-70
2022/04/17 02:06:43;;;;;;;3.65;3.10;;;;;;;3.29;100.00;100281.75;1734217;82;21521;-71
2022/04/17 02:09:14;;;;;;;5.37;3.52;;;;;;;3.27;100.00;100275.71;1734612;82;21483;-71
2022/04/17 02:11:42;;;;;;;4.05;3.17;;;;;;;3.28;100.00;100274.83;1734652;82;21104;-71
2022/04/17 02:14:09;;;;;;;4.28;3.45;;;;;;;3.29;100.00;100278.73;1734413;82;20990;-70
2022/04/17 02:16:37;;;;;;;3.77;3.17;;;;;;;3.27;100.00;100286.12;1734634;82;21038;-69
2022/04/17 02:19:04;;;;;;;4.70;3.42;;;;;;;3.24;100.00;100279.61;1734144;82;21137;-69
2022/04/17 02:21:32;;;;;;;3.85;2.98;;;;;;;3.21;100.00;100278.33;1733912;82;21061;-71
2022/04/17 02:24:00;;;;;;;4.08;2.90;;;;;;;3.19;100.00;100274.87;1734377;82;21069;-70
2022/04/17 02:26:27;;;;;;;4.03;3.08;;;;;;;3.18;100.00;100278.36;1734115;82;22151;-72
2022/04/17 02:28:56;;;;;;;6.95;3.30;;;;;;;3.15;100.00;100261.88;1734148;82;21309;-69
2022/04/17 02:31:23;;;;;;;3.70;3.00;;;;;;;3.15;100.00;100272.29;1734554;82;21089;-70
2022/04/17 02:33:50;;;;;;;3.33;2.60;;;;;;;3.15;100.00;100274.89;1734107;82;21597;-71
2022/04/17 02:36:18;;;;;;;3.30;3.00;;;;;;;3.12;100.00;100265.78;1734325;82;22112;-68
2022/04/17 02:38:45;;;;;;;3.80;3.10;;;;;;;3.12;100.00;100272.28;1734268;82;21053;-70
2022/04/17 02:41:11;;;;;;;3.52;2.85;;;;;;;3.10;100.00;100266.22;1734356;82;21250;-71
2022/04/17 02:43:38;;;;;;;5.20;3.10;;;;;;;3.10;100.00;100266.22;1734238;82;21026;-70
2022/04/17 02:46:05;;;;;;;3.87;3.35;;;;;;;3.09;100.00;100271.01;1734637;82;21101;-70
2022/04/17 02:48:32;;;;;;;3.72;2.90;;;;;;;3.07;100.00;100268.84;1734419;82;21027;-70
2022/04/17 02:51:00;;;;;;;3.12;2.77;;;;;;;3.08;100.00;100265.39;1734082;82;21093;-69
2022/04/17 02:53:30;;;;;;;3.45;2.85;;;;;;;3.07;100.00;100266.24;1734500;82;21119;-69
2022/04/17 02:55:57;;;;;;;4.58;2.70;;;;;;;3.07;100.00;100264.08;1734242;82;21086;-71
2022/04/17 02:58:25;;;;;;;4.95;2.95;;;;;;;3.06;100.00;100261.92;1734557;82;21073;-71
2022/04/17 03:06:25;;;;;;;3.47;2.60;;;;;;;3.10;100.00;100258.41;1734040;82;21620;-71
2022/04/17 03:08:53;;;;;;;3.02;2.60;;;;;;;3.09;100.00;100257.99;1733857;82;21031;-70
2022/04/17 03:11:21;;;;;;;3.00;2.47;;;;;;;3.09;100.00;100256.70;1733859;82;21054;-70
2022/04/17 03:13:52;;;;;;;2.58;2.00;;;;;;;3.10;100.00;100266.22;1733819;82;22231;-70
2022/04/17 03:16:19;;;;;;;2.95;2.20;;;;;;;3.09;100.00;100266.25;1734087;82;21510;-70
2022/04/17 03:18:47;;;;;;;4.15;2.33;;;;;;;3.10;100.00;100260.16;1733961;82;21054;-70
2022/04/17 03:21:14;;;;;;;2.75;2.30;;;;;;;3.11;100.00;100262.76;1733944;82;21105;-70
2022/04/17 03:23:41;;;;;;;3.65;2.10;;;;;;;3.13;100.00;100258.42;1734382;82;21113;-70
2022/04/17 03:26:08;;;;;;;3.10;2.40;;;;;;;3.15;100.00;100260.98;1734031;82;21050;-71
2022/04/17 03:28:36;;;;;;;2.98;2.40;;;;;;;3.16;100.00;100261.44;1709029;82;21558;-71
2022/04/17 03:31:04;;;;;;;3.72;2.27;;;;;;;3.20;100.00;100262.27;1705003;83;21140;-71
2022/04/17 06:18:37;;;;;;;3.55;2.50;;;;;;;4.64;100.00;100327.69;1771104;80;28714;-69
2022/04/17 06:21:05;;;;;;;4.35;2.77;;;;;;;4.54;100.00;100327.36;1732697;82;20965;-70
2022/04/17 06:23:32;;;;;;;2.58;2.20;;;;;;;4.46;100.00;100330.46;1732848;82;22009;-70
2022/04/17 06:26:01;;;;;;;3.52;2.87;;;;;;;4.39;100.00;100338.36;1732732;82;21612;-70
2022/04/17 06:28:27;;;;;;;3.52;2.50;;;;;;;4.36;100.00;100335.76;1709526;82;21526;-70
2022/04/17 06:30:54;;;;;;;2.92;2.62;;;;;;;4.37;100.00;100337.50;1703366;84;22261;-69
2022/04/17 06:33:23;;;;;;;4.28;2.20;;;;;;;4.40;100.00;100335.31;1703367;83;20989;-69
2022/04/17 06:35:50;;;;;;;2.62;2.08;;;;;;;4.44;100.00;100333.11;1703358;84;22277;-71
2022/04/17 06:38:17;;;;;;;3.92;2.70;;;;;;;4.50;100.00;100329.56;1703382;84;20993;-69
2022/04/17 06:40:44;;;;;;;3.17;2.58;;;;;;;4.51;100.00;100335.19;1703445;84;21096;-70
2022/04/17 06:43:11;;;;;;;3.47;2.70;;;;;;;4.60;100.00;100327.28;1703560;83;21042;-70
2022/04/17 06:45:40;;;;;;;3.30;2.77;;;;;;;4.72;100.00;100333.70;1703440;83;21045;-70
2022/04/17 06:48:18;;;;;;;2.98;2.42;;;;;;;4.84;100.00;100333.58;1703358;83;21560;-70
2022/04/17 06:50:48;;;;;;;3.17;2.62;;;;;;;4.95;100.00;100336.08;1703345;83;21089;-70
2022/04/17 06:53:15;;;;;;;3.70;2.10;;;;;;;5.01;100.00;100337.75;1703379;84;21139;-71
2022/04/17 06:55:42;;;;;;;2.77;2.40;;;;;;;5.08;100.00;100331.57;1703340;83;21053;-70
2022/04/17 06:58:09;;;;;;;2.83;2.40;;;;;;;5.15;100.00;100335.84;1703509;83;21104;-70
2022/04/17 07:00:36;;;;;;;2.87;2.37;;;;;;;5.28;100.00;100335.72;1703521;84;21209;-70
2022/04/17 07:03:03;;;;;;;3.08;2.00;;;;;;;5.39;100.00;100340.37;1703779;83;21143;-71
2022/04/17 07:05:32;;;;;;;2.37;2.17;;;;;;;5.49;100.00;100335.44;1703511;83;21037;-72
2022/04/17 07:08:04;;;;;;;2.47;2.27;;;;;;;5.50;98.42;100338.48;1688484;84;21105;-71
2022/04/17 07:10:37;;;;;;;2.40;2.05;;;;;;;5.42;98.67;100346.84;1675147;85;21073;-71
2022/04/17 07:13:05;;;;;;;2.95;2.10;;;;;;;5.39;98.63;100337.75;1675250;85;21115;-70
2022/04/17 07:15:33;;;;;;;2.40;2.20;;;;;;;5.40;99.15;100346.86;1675280;85;21077;-71
2022/04/17 07:18:00;;;;;;;3.33;2.75;;;;;;;5.49;99.46;100350.25;1686969;84;21570;-71
2022/04/17 07:20:26;;;;;;;2.42;2.08;;;;;;;5.59;99.02;100350.13;1694723;84;21081;-71
2022/04/17 07:22:54;;;;;;;2.50;2.20;;;;;;;5.62;97.73;100348.77;1694489;84;21037;-71
2022/04/17 07:25:21;;;;;;;2.42;1.85;;;;;;;5.67;98.46;100337.80;1694489;84;22177;-72
2022/04/17 07:27:50;;;;;;;3.12;2.27;;;;;;;5.81;98.51;100336.30;1709817;83;21030;-71
2022/04/17 07:30:19;;;;;;;3.05;2.20;;;;;;;5.98;97.94;100336.53;1723615;83;21707;-71
2022/04/17 07:32:53;;;;;;;2.20;1.90;;;;;;;6.09;96.23;100333.31;1723831;83;21057;-71
2022/04/17 07:35:22;;;;;;;4.17;2.10;;;;;;;6.18;93.83;100338.85;1723622;83;21061;-70
2022/04/17 07:37:51;;;;;;;2.20;2.00;;;;;;;6.21;91.62;100336.18;1723980;83;21146;-72
2022/04/17 07:40:24;;;;;;;2.40;1.90;;;;;;;6.26;91.51;100335.23;1723764;83;21045;-70
2022/04/17 07:42:52;;;;;;;2.37;2.10;;;;;;;6.35;90.34;100330.72;1723806;83;21112;-70
2022/04/17 07:45:20;;;;;;;2.20;2.00;;;;;;;6.69;90.64;100329.70;1723657;83;21104;-71
2022/04/17 07:47:47;;;;;;;1.95;1.82;;;;;;;7.09;89.81;100324.59;1696174;83;21039;-70
2022/04/17 07:50:18;;;;;;;1.95;1.70;;;;;;;7.61;87.82;100320.02;1696346;84;21107;-71
2022/04/17 07:52:47;;;;;;;1.45;1.35;;;;;;;8.28;85.74;100315.42;1696227;84;21727;-71
2022/04/17 07:55:14;;;;;;;2.08;1.80;;;;;;;8.89;82.29;100312.56;1696169;84;21017;-71
2022/04/17 08:00:33;;;;;;;2.27;1.80;;;;;;;10.33;73.95;100305.20;1696180;84;21136;-69
2022/04/17 08:03:07;;;;;;;1.30;1.20;;;;;;;10.87;72.33;100309.51;1696441;84;21085;-70
2022/04/17 08:05:40;;;;;;;1.12;1.02;;;;;;;10.96;67.17;100303.91;1695989;84;21057;-72
2022/04/17 08:08:09;;;;;;;2.58;0.90;;;;;;;10.68;66.19;100319.38;1695758;84;21050;-71
2022/04/17 08:10:38;;;;;;;1.00;0.60;;;;;;;9.82;68.83;100331.36;1696147;84;21069;-71
2022/04/17 08:13:06;;;;;;;0.80;0.80;;;;;;;8.82;72.32;100337.27;1696358;84;21572;-71
2022/04/17 08:15:34;;;;;;;2.15;0.80;;;;;;;7.92;78.02;100339.02;1696259;84;21322;-70
2022/04/17 08:18:02;;;;;;;1.57;0.80;;;;;;;7.22;80.99;100346.16;1694398;83;21002;-71
2022/04/17 08:20:30;;;;;;;1.20;1.10;;;;;;;6.72;84.35;100349.30;1693011;84;21085;-71
2022/04/17 08:22:57;;;;;;;1.20;1.10;;;;;;;6.39;86.56;100350.27;1692976;84;21132;-72
2022/04/17 08:25:23;;;;;;;1.62;1.22;;;;;;;6.19;88.68;100343.18;1692849;84;21588;-71
2022/04/17 08:27:53;;;;;;;1.50;1.40;;;;;;;6.09;92.46;100342.02;1693072;84;21223;-70
2022/04/17 08:30:23;;;;;;;2.20;1.57;;;;;;;5.98;94.93;100345.68;1693221;84;21093;-71
2022/04/17 08:32:50;;;;;;;1.60;1.43;;;;;;;5.97;97.71;100350.50;1693493;83;21041;-70
2022/04/17 08:35:17;;;;;;;1.20;1.10;;;;;;;5.94;98.12;100349.22;1693221;84;21195;-70
2022/04/17 08:37:44;;;;;;;1.50;1.40;;;;;;;5.94;97.55;100337.03;1693193;83;21084;-71
2022/04/17 08:40:12;;;;;;;4.42;1.65;;;;;;;5.80;96.91;100340.27;1693036;84;21537;-71
2022/04/17 08:42:38;;;;;;;2.45;1.40;;;;;;;5.76;96.93;100349.03;1693184;84;21105;-71
2022/04/17 08:45:07;;;;;;;11.83;9.33;;;;;;;5.76;97.41;100343.80;1693379;84;21060;-71
2022/04/17 08:47:40;;;;;;;5.65;3.65;;;;;;;5.86;98.70;100335.78;1693585;83;21093;-71
2022/04/17 08:50:12;;;;;;;2.65;1.98;;;;;;;6.00;97.87;100338.23;1693301;84;21101;-70
2022/04/17 08:52:38;;;;;;;2.83;2.62;;;;;;;6.02;98.01;100331.23;1693289;83;21157;-70
2022/04/17 08:55:07;;;;;;;1.87;1.75;;;;;;;6.11;99.21;100332.85;1692966;84;21054;-72
2022/04/17 08:57:33;;;;;;;2.17;1.37;;;;;;;6.20;100.00;100331.40;1693288;84;21069;-72
2022/04/17 09:00:08;;;;;;;1.80;1.70;;;;;;;6.34;100.00;100325.95;1693226;83;21065;-72
2022/04/17 09:02:35;;;;;;;1.98;1.70;;;;;;;6.51;99.02;100330.46;1676749;84;21048;-71
2022/04/17 09:05:07;;;;;;;5.70;4.78;;;;;;;6.72;99.46;100327.05;1693339;84;21497;-71
2022/04/17 09:07:51;;;;;;;17.10;13.78;;;;;;;6.78;96.04;100334.77;1693264;83;21141;-71
2022/04/17 09:10:29;;;;;;;7.87;6.08;;;;;;;6.74;96.09;100329.20;1693281;83;21022;-71
2022/04/17 09:13:00;;;;;;;1.65;1.55;;;;;;;6.62;96.49;100334.63;1693491;83;21049;-71
2022/04/17 09:15:35;;;;;;;1.52;1.37;;;;;;;6.57;97.69;100340.40;1693112;84;21038;-71
2022/04/17 09:18:07;;;;;;;3.25;1.50;;;;;;;6.47;97.31;100336.63;1693491;83;21050;-70
2022/04/17 09:20:36;;;;;;;1.57;1.47;;;;;;;6.41;97.73;100334.11;1693240;83;21058;-71
2022/04/17 09:23:03;;;;;;;1.92;1.32;;;;;;;6.44;96.64;100341.03;1693340;83;21006;-73
2022/04/17 09:25:30;;;;;;;1.30;1.20;;;;;;;6.58;97.04;100342.11;1693362;84;21065;-71
2022/04/17 09:28:05;;;;;;;1.62;1.42;;;;;;;6.76;98.43;100337.86;1673719;84;21090;-72
2022/04/17 09:30:35;;;;;;;1.70;1.60;;;;;;;7.15;98.77;100328.84;1661032;84;21295;-72
2022/04/17 09:33:12;;;;;;;2.22;1.12;;;;;;;7.45;95.49;100330.42;1664915;86;21131;-71
2022/04/17 09:35:39;;;;;;;1.00;0.90;;;;;;;7.51;90.95;100339.47;1665301;86;21067;-73
2022/04/17 09:38:09;;;;;;;1.17;0.95;;;;;;;7.25;89.39;100351.35;1665077;86;21566;-72
2022/04/17 09:40:36;;;;;;;0.80;0.80;;;;;;;6.88;90.15;100357.29;1665628;86;21036;-71
2022/04/17 09:43:17;;;;;;;0.80;0.80;;;;;;;6.53;90.44;100359.65;1665577;86;21267;-71
2022/04/17 09:45:58;;;;;;;1.17;0.93;;;;;;;6.09;91.85;100359.46;1665606;86;21044;-70
2022/04/17 09:48:40;;;;;;;1.10;0.93;;;;;;;5.74;92.97;100364.72;1665184;86;21543;-71
2022/04/17 09:51:25;;;;;;;1.40;1.20;;;;;;;5.50;94.41;100364.61;1665311;86;21075;-70
2022/04/17 09:54:01;;;;;;;1.55;1.20;;;;;;;5.32;96.15;100360.47;1665210;86;21097;-71
2022/04/17 09:56:43;;;;;;;1.50;1.15;;;;;;;5.28;98.28;100353.99;1662033;86;21133;-71
2022/04/17 09:59:24;;;;;;;2.80;1.17;;;;;;;5.37;100.00;100358.66;1665166;86;21169;-72
2022/04/17 10:01:56;;;;;;;1.53;1.10;;;;;;;5.44;100.00;100355.53;1665546;86;21119;-72
2022/04/17 10:04:25;;;;;;;1.72;1.32;;;;;;;5.48;100.00;100352.00;1665243;86;21083;-72
2022/04/17 10:06:54;;;;;;;2.65;1.47;;;;;;;5.47;100.00;100350.27;1665798;84;21064;-71
2022/04/17 10:09:22;;;;;;;1.70;1.50;;;;;;;5.40;100.00;100351.22;1665806;86;21032;-70
2022/04/17 10:11:51;;;;;;;1.60;1.27;;;;;;;5.38;100.00;100349.06;1665241;86;22100;-70
2022/04/17 10:14:19;;;;;;;1.50;1.20;;;;;;;5.41;100.00;100356.89;1665507;86;21400;-72
2022/04/17 10:16:48;;;;;;;2.10;1.70;;;;;;;5.56;100.00;100359.73;1665069;86;21048;-71
2022/04/17 10:19:19;;;;;;;2.87;1.90;;;;;;;5.71;100.00;100356.08;1665160;85;21075;-71
2022/04/17 10:21:47;;;;;;;2.77;1.92;;;;;;;5.78;100.00;100357.27;1665217;86;21004;-71
2022/04/17 10:24:17;;;;;;;3.30;1.62;;;;;;;5.82;100.00;100351.53;1665383;86;21107;-70
2022/04/17 10:26:47;;;;;;;1.35;1.20;;;;;;;5.86;100.00;100351.92;1667531;84;21059;-70
2022/04/17 10:29:38;;;;;;;1.65;1.50;;;;;;;5.80;100.00;100340.27;1693599;84;21097;-71
2022/04/17 10:32:36;;;;;;;1.40;1.30;;;;;;;5.80;100.00;100345.50;1693389;83;21580;-72
2022/04/17 10:35:42;;;;;;;1.80;1.42;;;;;;;5.85;100.00;100341.06;1693207;83;21884;-71
2022/04/17 10:38:39;;;;;;;4.85;3.22;;;;;;;5.93;100.00;100331.34;1693221;83;21685;-71
2022/04/17 10:41:09;;;;;;;3.67;2.12;;;;;;;6.08;100.00;100328.53;1693360;83;21018;-73
2022/04/17 10:43:50;;;;;;;2.85;1.85;;;;;;;6.23;100.00;100327.42;1693219;84;21126;-71
2022/04/17 10:46:19;;;;;;;4.42;2.70;;;;;;;6.42;100.00;100327.11;1693529;83;21108;-71
2022/04/17 10:49:05;;;;;;;2.90;1.95;;;;;;;6.71;100.00;100327.47;1693270;84;21196;-72
2022/04/17 10:51:38;;;;;;;2.83;1.90;;;;;;;7.05;100.00;100329.92;1692975;84;21612;-71
2022/04/17 10:54:10;;;;;;;2.33;1.90;;;;;;;7.52;100.00;100313.66;1676515;84;20990;-73
2022/04/17 10:56:40;;;;;;;2.00;1.67;;;;;;;7.90;100.00;100311.97;1693180;83;21561;-71
2022/04/17 10:59:22;;;;;;;5.15;1.72;;;;;;;8.40;100.00;100305.98;1693528;84;21081;-71
2022/04/17 11:01:53;;;;;;;2.12;1.50;;;;;;;8.77;98.90;100312.45;1693322;84;21747;-73
2022/04/17 11:04:40;;;;;;;1.57;1.42;;;;;;;9.00;90.38;100310.51;1693539;83;21049;-71
2022/04/17 11:07:13;;;;;;;2.85;2.02;;;;;;;9.01;87.59;100304.34;1693031;83;21018;-71
2022/04/17 11:09:44;;;;;;;2.17;1.55;;;;;;;9.32;86.44;100307.43;1693259;83;21073;-71
2022/04/17 11:12:27;;;;;;;1.32;1.20;;;;;;;9.76;85.41;100310.49;1693368;84;21735;-71
2022/04/17 11:14:57;;;;;;;1.70;1.25;;;;;;;10.21;82.91;100309.92;1693300;83;21057;-70
2022/04/17 11:17:30;;;;;;;1.20;1.10;;;;;;;10.79;78.98;100301.89;1693325;83;21053;-71
2022/04/17 11:19:59;;;;;;;1.80;1.40;;;;;;;11.30;72.10;100296.10;1693172;83;21034;-71
2022/04/17 11:22:36;;;;;;;1.10;1.00;;;;;;;11.64;70.46;100292.16;1693247;84;21072;-70
2022/04/17 11:25:08;;;;;;;1.25;1.10;;;;;;;12.02;67.03;100283.23;1693572;83;21096;-71
2022/04/17 11:27:51;;;;;;;2.22;1.55;;;;;;;12.29;63.83;100284.73;1678572;83;21061;-71
2022/04/17 11:30:23;;;;;;;1.30;1.20;;;;;;;12.28;60.65;100283.00;1660087;86;21026;-70
2022/04/17 11:32:51;;;;;;;1.82;1.55;;;;;;;12.04;57.91;100276.96;1660172;85;21669;-71
2022/04/17 11:35:22;;;;;;;1.82;1.22;;;;;;;11.71;60.47;100279.12;1659910;84;21093;-71
2022/04/17 11:37:57;;;;;;;1.80;1.70;;;;;;;11.64;61.70;100276.33;1660348;86;21073;-70
2022/04/17 11:40:30;;;;;;;1.92;1.20;;;;;;;11.55;60.14;100279.74;1660218;85;21133;-70
2022/04/17 11:43:10;;;;;;;1.20;1.00;;;;;;;11.21;59.19;100281.48;1659852;85;21053;-71
2022/04/17 11:45:38;;;;;;;1.12;1.02;;;;;;;10.69;58.44;100280.25;1657815;86;21580;-69
2022/04/17 11:48:09;;;;;;;1.20;0.82;;;;;;;10.12;60.01;100295.75;1659909;86;21077;-71
2022/04/17 11:50:36;;;;;;;;;;;;;;;9.77;61.60;100293.79;1662521;86;21148;-69
2022/04/17 11:53:07;;;;;;;1.05;0.90;;;;;;;9.49;61.64;100300.81;1660137;86;21076;-70
